地図

経路データ

SID SEASON NUMBER BASIN SUBBASIN NAME ISO_TIME NATURE LAT LON WMO_WIND WMO_PRES WMO_AGENCY TRACK_TYPE DIST2LAND LANDFALL IFLAG USA_AGENCY USA_ATCF_ID USA_LAT USA_LON USA_RECORD USA_STATUS USA_WIND USA_PRES USA_SSHS USA_R34_NE USA_R34_SE USA_R34_SW USA_R34_NW USA_R50_NE USA_R50_SE USA_R50_SW USA_R50_NW USA_R64_NE USA_R64_SE USA_R64_SW USA_R64_NW USA_POCI USA_ROCI USA_RMW USA_EYE TOKYO_LAT TOKYO_LON TOKYO_GRADE TOKYO_WIND TOKYO_PRES TOKYO_R50_DIR TOKYO_R50_LONG TOKYO_R50_SHORT TOKYO_R30_DIR TOKYO_R30_LONG TOKYO_R30_SHORT TOKYO_LAND CMA_LAT CMA_LON CMA_CAT CMA_WIND CMA_PRES HKO_LAT HKO_LON HKO_CAT HKO_WIND HKO_PRES NEWDELHI_LAT NEWDELHI_LON NEWDELHI_GRADE NEWDELHI_WIND NEWDELHI_PRES NEWDELHI_CI NEWDELHI_DP NEWDELHI_POCI REUNION_LAT REUNION_LON REUNION_TYPE REUNION_WIND REUNION_PRES REUNION_TNUM REUNION_CI REUNION_RMW REUNION_R34_NE REUNION_R34_SE REUNION_R34_SW REUNION_R34_NW REUNION_R50_NE REUNION_R50_SE REUNION_R50_SW REUNION_R50_NW REUNION_R64_NE REUNION_R64_SE REUNION_R64_SW REUNION_R64_NW BOM_LAT BOM_LON BOM_TYPE BOM_WIND BOM_PRES BOM_TNUM BOM_CI BOM_RMW BOM_R34_NE BOM_R34_SE BOM_R34_SW BOM_R34_NW BOM_R50_NE BOM_R50_SE BOM_R50_SW BOM_R50_NW BOM_R64_NE BOM_R64_SE BOM_R64_SW BOM_R64_NW BOM_ROCI BOM_POCI BOM_EYE BOM_POS_METHOD BOM_PRES_METHOD NADI_LAT NADI_LON NADI_CAT NADI_WIND NADI_PRES WELLINGTON_LAT WELLINGTON_LON WELLINGTON_WIND WELLINGTON_PRES DS824_LAT DS824_LON DS824_STAGE DS824_WIND DS824_PRES TD9636_LAT TD9636_LON TD9636_STAGE TD9636_WIND TD9636_PRES TD9635_LAT TD9635_LON TD9635_WIND TD9635_PRES TD9635_ROCI NEUMANN_LAT NEUMANN_LON NEUMANN_CLASS NEUMANN_WIND NEUMANN_PRES MLC_LAT MLC_LON MLC_CLASS MLC_WIND MLC_PRES USA_GUST BOM_GUST BOM_GUST_PER REUNION_GUST REUNION_GUST_PER USA_SEAHGT USA_SEARAD_NE USA_SEARAD_SE USA_SEARAD_SW USA_SEARAD_NW STORM_SPEED STORM_DIR
1984261N29295 1984 82 NA NA GUSTAV 1984-09-16 18:00:00 TS 28.6000 -65.5000 30 1009 hurdat_atl main 1104 1104 O_____________ hurdat_atl AL131984 28.6000 -65.5000 TD 30 1009 -1 11 3
1984261N29295 1984 82 NA NA GUSTAV 1984-09-16 21:00:00 TS 29.1375 -65.4927 main 1154 1154 P_____________ AL131984 29.1375 -65.4927 TD 30 1009 -1 10 1
1984261N29295 1984 82 NA NA GUSTAV 1984-09-17 00:00:00 TS 29.6000 -65.5000 30 1009 hurdat_atl main 1160 1140 O_____________ hurdat_atl AL131984 29.6000 -65.5000 TD 30 1009 -1 8 358
1984261N29295 1984 82 NA NA GUSTAV 1984-09-17 03:00:00 TS 29.9500 -65.5222 main 1140 1113 P_____________ AL131984 29.9500 -65.5222 TD 30 1009 -1 7 0
1984261N29295 1984 82 NA NA GUSTAV 1984-09-17 06:00:00 TS 30.3000 -65.5000 30 1009 hurdat_atl main 1113 1089 O_____________ hurdat_atl AL131984 30.3000 -65.5000 TD 30 1009 -1 9 8
1984261N29295 1984 82 NA NA GUSTAV 1984-09-17 09:00:00 TS 30.7925 -65.3876 main 1089 1073 P_____________ AL131984 30.7925 -65.3876 TD 30 1009 -1 10 14
1984261N29295 1984 82 NA NA GUSTAV 1984-09-17 12:00:00 TS 31.3000 -65.2000 30 1009 hurdat_atl main 1075 1067 O_____________ hurdat_atl AL131984 31.3000 -65.2000 TD 30 1009 -1 11 22
1984261N29295 1984 82 NA NA GUSTAV 1984-09-17 15:00:00 TS 31.7752 -64.9280 main 1073 1068 P_____________ AL131984 31.7752 -64.9280 TD 30 1009 -1 9 28
1984261N29295 1984 82 NA NA GUSTAV 1984-09-17 18:00:00 TS 32.1000 -64.7000 30 1009 hurdat_atl main 1075 1070 O_____________ hurdat_atl AL131984 32.1000 -64.7000 TD 30 1009 -1 4 30
1984261N29295 1984 82 NA NA GUSTAV 1984-09-17 21:00:00 TS 32.1599 -64.6621 main 1070 1070 P_____________ AL131984 32.1599 -64.6621 TD 30 1009 -1 0 0
1984261N29295 1984 82 NA NA GUSTAV 1984-09-18 00:00:00 TS 32.1000 -64.7000 30 1009 hurdat_atl main 1075 1075 O_____________ hurdat_atl AL131984 32.1000 -64.7000 TD 30 1009 -1 1 209
1984261N29295 1984 82 NA NA GUSTAV 1984-09-18 03:00:00 TS 32.1000 -64.7000 main 1075 1075 P_____________ AL131984 32.1000 -64.7000 TD 30 1009 -1 0 0
1984261N29295 1984 82 NA NA GUSTAV 1984-09-18 06:00:00 TS 32.1000 -64.7000 30 1009 hurdat_atl main 1075 1075 O_____________ hurdat_atl AL131984 32.1000 -64.7000 TD 30 1009 -1 0 0
1984261N29295 1984 82 NA NA GUSTAV 1984-09-18 09:00:00 TS 32.1000 -64.7000 main 1075 1075 P_____________ AL131984 32.1000 -64.7000 TD 30 1009 -1 0 0
1984261N29295 1984 82 NA NA GUSTAV 1984-09-18 12:00:00 TS 32.1000 -64.7000 30 1009 hurdat_atl main 1075 1071 O_____________ hurdat_atl AL131984 32.1000 -64.7000 TD 30 1009 -1 1 218
1984261N29295 1984 82 NA NA GUSTAV 1984-09-18 15:00:00 TS 32.0171 -64.7814 main 1071 1067 P_____________ AL131984 32.0171 -64.7814 TD 37 1007 0 0 0
1984261N29295 1984 82 NA NA GUSTAV 1984-09-18 18:00:00 TS 32.1000 -64.7000 45 1006 hurdat_atl main 1075 1075 O_____________ hurdat_atl AL131984 32.1000 -64.7000 TS 45 1006 0 7 42
1984261N29295 1984 82 NA NA GUSTAV 1984-09-18 21:00:00 TS 32.5456 -64.2259 main 1100 1095 P_____________ AL131984 32.5456 -64.2259 TS 45 1006 0 14 40
1984261N29295 1984 82 NA NA GUSTAV 1984-09-19 00:00:00 TS 33.2000 -63.6000 45 1006 hurdat_atl main 1100 1057 O_____________ hurdat_atl AL131984 33.2000 -63.6000 TS 45 1006 0 17 36
1984261N29295 1984 82 NA NA GUSTAV 1984-09-19 03:00:00 TS 33.8973 -63.0630 main 1057 1017 P_____________ AL131984 33.8973 -63.0630 TS 45 1006 0 16 31
1984261N29295 1984 82 NA NA GUSTAV 1984-09-19 06:00:00 TS 34.6000 -62.6000 45 1006 hurdat_atl main 1017 O_____________ hurdat_atl AL131984 34.6000 -62.6000 TS 45 1006 0 16 28

IBTrACS Databaseについて

本データベースは、米国NOAAが公開する1842年以降の世界の熱帯低気圧のベストトラックデータアーカイブInternational Best Track Archive for Climate Stewardship (IBTrACS)を、ウェブで閲覧しやすい形式に変換したものです。

最終更新日:2021-11-26